Time;durP1;ratioP1;P1;durP2;ratioP2;P2;SDS_P1;SDS_P2;PMS_P1;PMS_P2;Temp;Humidity;BMP_temperature;BMP_pressure;BME280_temperature;BME280_humidity;BME280_pressure;Samples;Min_cycle;Max_cycle;Signal;HPM_P1;HPM_P2
2022/10/13 04:01:25;;;;;;;35.30;28.50;;;12.80;99.90;;;;;;5537169;23;20912;-62
2022/10/13 04:03:54;;;;;;;39.43;30.60;;;12.80;99.90;;;;;;4979345;28;20829;-62
2022/10/13 04:06:21;;;;;;;39.10;28.63;;;12.80;99.90;;;;;;4980113;28;20454;-63
2022/10/13 04:08:48;;;;;;;39.10;29.30;;;12.80;99.90;;;;;;4979076;28;20505;-63
2022/10/13 04:11:16;;;;;;;35.90;29.60;;;12.90;99.90;;;;;;4978302;28;20513;-62
2022/10/13 04:13:44;;;;;;;38.43;30.93;;;12.90;99.90;;;;;;4978372;28;20513;-62
2022/10/13 04:16:14;;;;;;;38.30;28.67;;;12.90;99.90;;;;;;4979091;28;20450;-62
2022/10/13 04:18:42;;;;;;;41.13;29.93;;;12.90;99.90;;;;;;4978210;28;20537;-63
2022/10/13 04:21:10;;;;;;;36.17;28.43;;;12.90;99.90;;;;;;4978399;28;20474;-63
2022/10/13 04:23:37;;;;;;;37.20;27.83;;;12.90;99.90;;;;;;4978493;28;20505;-63
2022/10/13 04:26:05;;;;;;;39.10;28.90;;;13.00;99.90;;;;;;4978315;28;20458;-62
2022/10/13 04:28:34;;;;;;;38.63;28.73;;;13.00;99.90;;;;;;4978503;28;20519;-62
2022/10/13 04:31:01;;;;;;;38.23;28.83;;;13.00;99.90;;;;;;4978062;28;20482;-63
2022/10/13 04:33:28;;;;;;;34.03;27.47;;;13.00;99.90;;;;;;4977920;28;20465;-63
2022/10/13 04:35:56;;;;;;;35.33;29.03;;;13.00;99.90;;;;;;4978188;28;20458;-63
2022/10/13 04:38:23;;;;;;;38.07;26.20;;;13.00;99.90;;;;;;4978195;28;20459;-63
2022/10/13 04:40:49;;;;;;;31.33;26.53;;;13.00;99.90;;;;;;4977756;28;21048;-62
2022/10/13 04:43:16;;;;;;;40.43;27.00;;;13.00;99.90;;;;;;4977020;28;20529;-63
2022/10/13 04:45:43;;;;;;;31.47;26.57;;;12.90;99.90;;;;;;4978784;28;20466;-62
2022/10/13 04:48:10;;;;;;;38.43;25.40;;;12.90;99.90;;;;;;4977632;28;20470;-63
2022/10/13 04:50:37;;;;;;;36.67;27.00;;;12.80;99.90;;;;;;4977981;28;20475;-63
2022/10/13 04:53:05;;;;;;;29.53;26.00;;;12.80;99.90;;;;;;4977822;28;20541;-62
2022/10/13 04:55:35;;;;;;;30.17;25.40;;;12.70;99.90;;;;;;4977605;28;20462;-62
2022/10/13 04:58:02;;;;;;;30.07;25.40;;;12.70;99.90;;;;;;4977337;28;20942;-62
2022/10/13 05:00:28;;;;;;;30.60;24.70;;;12.70;99.90;;;;;;4977275;28;20521;-62
2022/10/13 05:02:55;;;;;;;28.63;24.70;;;12.70;99.90;;;;;;4977628;28;20474;-63
2022/10/13 05:05:22;;;;;;;26.33;23.53;;;12.70;99.90;;;;;;4977473;28;20462;-62
2022/10/13 05:07:48;;;;;;;27.57;23.10;;;12.70;99.90;;;;;;4977543;28;20938;-63
2022/10/13 05:10:16;;;;;;;27.90;24.20;;;12.70;99.90;;;;;;4977528;28;20575;-63
2022/10/13 05:12:43;;;;;;;29.10;23.87;;;12.70;99.90;;;;;;4977181;28;20992;-63
2022/10/13 05:15:10;;;;;;;25.80;22.77;;;12.60;99.90;;;;;;4977577;28;20549;-63
2022/10/13 05:17:37;;;;;;;28.43;22.23;;;12.70;99.90;;;;;;4977333;28;20458;-63
2022/10/13 05:20:04;;;;;;;24.17;21.70;;;12.70;99.90;;;;;;4977152;28;20455;-63
2022/10/13 05:22:31;;;;;;;24.30;21.90;;;12.70;99.90;;;;;;4977209;28;20474;-62
2022/10/13 05:24:57;;;;;;;27.57;22.93;;;12.60;99.90;;;;;;4977495;28;20454;-62
2022/10/13 05:27:25;;;;;;;26.50;23.90;;;12.60;99.90;;;;;;4977167;28;20483;-62
2022/10/13 05:29:52;;;;;;;28.30;23.70;;;12.60;99.90;;;;;;4977138;28;20461;-62
2022/10/13 05:32:19;;;;;;;28.83;23.60;;;12.60;99.90;;;;;;4976984;28;20483;-64
2022/10/13 05:34:47;;;;;;;28.70;24.80;;;12.60;99.90;;;;;;4976896;28;20490;-62
2022/10/13 05:37:15;;;;;;;25.93;22.53;;;12.60;99.90;;;;;;4976644;28;20451;-62
2022/10/13 05:39:42;;;;;;;25.57;21.90;;;12.60;99.90;;;;;;4976640;28;20463;-63
2022/10/13 05:42:09;;;;;;;26.93;23.70;;;12.60;99.90;;;;;;4977611;28;20478;-62
2022/10/13 05:44:37;;;;;;;25.50;22.90;;;12.50;99.90;;;;;;4977875;28;20458;-62
2022/10/13 05:47:04;;;;;;;27.60;22.27;;;12.60;99.90;;;;;;4976988;28;20465;-61
2022/10/13 05:49:30;;;;;;;28.43;22.80;;;12.60;99.90;;;;;;4976629;28;20459;-61
2022/10/13 05:52:01;;;;;;;24.70;22.20;;;12.60;99.90;;;;;;4977172;28;20478;-63
2022/10/13 05:54:30;;;;;;;29.90;23.00;;;12.60;99.90;;;;;;4976629;28;20482;-61
2022/10/13 05:57:00;;;;;;;27.40;23.00;;;12.70;99.90;;;;;;4976168;28;20864;-61
2022/10/13 05:59:29;;;;;;;27.40;23.20;;;12.70;99.90;;;;;;4977213;28;20494;-63
2022/10/13 06:01:58;;;;;;;24.40;21.77;;;12.80;99.90;;;;;;4976160;28;20993;-63
2022/10/13 06:04:30;;;;;;;26.30;22.30;;;12.80;99.90;;;;;;4976464;28;20458;-62
2022/10/13 06:06:56;;;;;;;27.03;22.23;;;12.80;99.90;;;;;;4976598;28;20493;-62
2022/10/13 06:09:23;;;;;;;25.17;22.60;;;12.90;99.90;;;;;;4976464;28;20462;-62
2022/10/13 06:11:50;;;;;;;24.60;21.90;;;12.90;99.90;;;;;;4976166;28;20479;-62
2022/10/13 06:14:16;;;;;;;24.43;21.87;;;12.90;99.90;;;;;;4976214;28;20525;-63
2022/10/13 06:16:43;;;;;;;24.67;20.77;;;13.00;99.90;;;;;;4975979;28;20808;-62
2022/10/13 06:19:11;;;;;;;24.73;21.27;;;13.00;99.90;;;;;;4976118;28;20481;-62
2022/10/13 06:21:37;;;;;;;34.30;20.77;;;13.10;99.90;;;;;;4975964;28;20474;-62
2022/10/13 06:24:05;;;;;;;27.00;21.00;;;13.10;99.90;;;;;;4975953;28;20871;-63
2022/10/13 06:26:31;;;;;;;26.33;19.57;;;13.20;99.90;;;;;;4976238;28;20795;-66
2022/10/13 06:28:58;;;;;;;23.57;20.07;;;13.30;99.90;;;;;;4975854;28;20462;-65
2022/10/13 06:31:24;;;;;;;22.00;19.70;;;13.40;99.90;;;;;;4975614;28;20478;-65
2022/10/13 06:33:51;;;;;;;28.77;19.13;;;13.40;99.90;;;;;;4975847;28;20458;-65
2022/10/13 06:36:19;;;;;;;21.37;18.20;;;13.50;99.90;;;;;;4977014;28;20509;-66
2022/10/13 06:38:46;;;;;;;25.03;19.33;;;13.60;99.90;;;;;;4978257;28;20818;-66
2022/10/13 06:41:13;;;;;;;22.27;19.87;;;13.70;99.90;;;;;;4975771;28;20570;-66
2022/10/13 06:43:40;;;;;;;26.80;19.30;;;13.70;99.90;;;;;;4975694;28;20550;-66
2022/10/13 06:46:07;;;;;;;22.20;19.30;;;13.70;99.90;;;;;;4975537;28;20458;-66
2022/10/13 06:48:34;;;;;;;18.87;16.97;;;13.80;99.90;;;;;;4975542;28;20479;-66
2022/10/13 06:51:02;;;;;;;22.23;19.90;;;13.90;99.90;;;;;;4975471;28;20474;-64
2022/10/13 06:53:30;;;;;;;21.47;18.90;;;13.90;99.90;;;;;;4975315;28;20478;-65
2022/10/13 06:55:57;;;;;;;25.90;19.50;;;14.00;99.90;;;;;;4975275;28;20506;-66
2022/10/13 06:58:24;;;;;;;24.07;20.07;;;14.00;99.90;;;;;;4975320;28;20512;-66
2022/10/13 07:00:51;;;;;;;26.83;19.87;;;14.00;99.90;;;;;;4975652;28;20494;-65
2022/10/13 07:03:17;;;;;;;21.17;18.97;;;14.10;99.90;;;;;;4975432;28;20486;-65
2022/10/13 07:05:44;;;;;;;23.63;20.87;;;14.00;99.90;;;;;;4974716;28;20832;-65
2022/10/13 07:08:11;;;;;;;25.60;22.17;;;14.00;99.90;;;;;;4975055;28;20817;-65
2022/10/13 07:10:39;;;;;;;29.00;21.47;;;14.00;99.90;;;;;;4975028;28;20982;-65
2022/10/13 07:13:06;;;;;;;27.30;22.23;;;13.90;99.90;;;;;;4974775;28;20531;-65
2022/10/13 07:15:33;;;;;;;27.13;21.73;;;13.80;99.90;;;;;;4975079;28;20459;-65
2022/10/13 07:18:00;;;;;;;27.37;20.90;;;13.80;99.90;;;;;;4975245;28;20505;-65
2022/10/13 07:20:26;;;;;;;26.27;20.93;;;13.80;99.90;;;;;;4975121;28;20455;-65
2022/10/13 07:22:53;;;;;;;26.97;22.47;;;13.80;99.90;;;;;;4974827;28;20481;-65
2022/10/13 07:25:20;;;;;;;26.70;22.10;;;13.80;99.90;;;;;;4975144;28;20458;-65
2022/10/13 07:27:48;;;;;;;29.07;23.23;;;13.80;99.90;;;;;;4975148;28;20454;-65
2022/10/13 07:30:15;;;;;;;31.80;22.37;;;13.80;99.90;;;;;;4974461;28;21021;-64
2022/10/13 07:32:41;;;;;;;29.43;23.57;;;13.80;99.90;;;;;;4974774;28;20545;-65
2022/10/13 07:35:09;;;;;;;24.47;21.93;;;13.80;99.90;;;;;;4975007;28;20543;-65
2022/10/13 07:37:35;;;;;;;25.73;20.80;;;13.80;99.90;;;;;;4975079;28;20513;-65
2022/10/13 07:40:02;;;;;;;22.33;20.20;;;13.90;99.90;;;;;;4975202;28;20476;-65
2022/10/13 07:42:29;;;;;;;29.60;20.07;;;14.00;99.90;;;;;;4974911;28;20478;-64
2022/10/13 07:44:57;;;;;;;26.53;20.20;;;14.20;99.90;;;;;;4975050;28;20458;-65
2022/10/13 07:47:24;;;;;;;19.90;17.93;;;14.30;99.90;;;;;;4974497;28;20945;-65
2022/10/13 07:49:50;;;;;;;22.13;19.03;;;14.50;99.90;;;;;;4974646;28;20934;-65
2022/10/13 07:52:17;;;;;;;21.90;17.93;;;14.80;99.90;;;;;;4974648;28;20489;-65
2022/10/13 07:54:44;;;;;;;19.20;17.00;;;15.20;99.90;;;;;;4974902;28;20533;-65
2022/10/13 07:57:10;;;;;;;20.73;16.93;;;15.70;99.90;;;;;;4974438;28;20458;-65
2022/10/13 07:59:37;;;;;;;21.00;16.57;;;16.10;99.90;;;;;;4974838;28;20510;-65
2022/10/13 08:02:06;;;;;;;19.30;16.00;;;16.50;99.90;;;;;;4974522;28;20482;-65
2022/10/13 08:04:35;;;;;;;18.90;16.90;;;16.80;99.90;;;;;;4975083;28;20454;-65
2022/10/13 08:07:02;;;;;;;25.10;16.83;;;17.00;99.90;;;;;;4974801;28;20461;-65
2022/10/13 08:09:28;;;;;;;18.40;16.00;;;17.20;99.90;;;;;;4974674;28;20454;-65
2022/10/13 08:11:55;;;;;;;19.77;15.00;;;17.40;99.90;;;;;;4974236;28;21064;-65
2022/10/13 08:14:22;;;;;;;20.80;16.40;;;17.60;99.90;;;;;;4974628;28;20454;-65
2022/10/13 08:16:49;;;;;;;23.00;16.13;;;17.60;99.90;;;;;;4976042;28;20458;-65
2022/10/13 08:19:19;;;;;;;18.00;15.63;;;17.70;99.90;;;;;;4978234;28;20454;-65
2022/10/13 08:21:45;;;;;;;26.83;17.67;;;17.80;99.90;;;;;;4978057;28;20506;-65
2022/10/13 08:24:14;;;;;;;17.43;15.63;;;17.70;99.90;;;;;;4978243;28;20459;-65
2022/10/13 08:26:43;;;;;;;16.50;14.20;;;18.00;99.90;;;;;;4978290;28;20465;-65
2022/10/13 08:29:09;;;;;;;22.23;15.60;;;18.20;99.90;;;;;;4977821;28;20941;-65
2022/10/13 08:31:36;;;;;;;20.67;14.77;;;18.60;99.90;;;;;;4977951;28;20474;-65
2022/10/13 08:34:03;;;;;;;17.23;14.23;;;19.10;99.90;;;;;;4978794;28;20479;-66
2022/10/13 08:36:31;;;;;;;14.97;13.40;;;19.70;99.90;;;;;;4978256;28;20509;-65
2022/10/13 08:38:57;;;;;;;17.90;12.80;;;20.30;99.90;;;;;;4978158;28;20459;-65
2022/10/13 08:41:27;;;;;;;16.60;12.70;;;21.10;99.90;;;;;;4978295;28;20479;-65
2022/10/13 08:44:01;;;;;;;16.70;12.50;;;21.80;99.90;;;;;;4977590;28;20922;-66
2022/10/13 08:46:32;;;;;;;13.43;12.10;;;22.40;99.90;;;;;;4977851;28;20435;-65
2022/10/13 08:49:01;;;;;;;14.80;13.30;;;22.90;99.90;;;;;;4978407;28;20451;-65
2022/10/13 08:51:29;;;;;;;17.97;13.10;;;23.30;99.90;;;;;;4977956;28;20479;-64
2022/10/13 08:53:57;;;;;;;15.30;12.67;;;23.50;99.90;;;;;;4986338;28;20470;-65
2022/10/13 08:56:26;;;;;;;14.60;12.40;;;23.50;99.90;;;;;;4985499;28;20846;-65
2022/10/13 08:58:55;;;;;;;14.03;11.80;;;23.50;99.90;;;;;;4985869;28;20482;-65
2022/10/13 09:01:24;;;;;;;17.67;12.37;;;23.50;99.90;;;;;;4983615;28;20487;-65
2022/10/13 09:03:53;;;;;;;15.37;13.27;;;23.30;99.90;;;;;;4985631;28;20509;-65
2022/10/13 09:06:27;;;;;;;15.63;12.60;;;23.30;99.90;;;;;;4986459;28;20454;-65
2022/10/13 09:08:57;;;;;;;15.50;13.13;;;23.30;99.90;;;;;;4985844;28;20439;-65
2022/10/13 09:11:27;;;;;;;17.93;13.00;;;23.30;99.90;;;;;;4985667;28;20470;-65
2022/10/13 09:13:56;;;;;;;14.83;12.23;;;23.20;99.90;;;;;;4979767;28;20476;-65
2022/10/13 09:16:33;;;;;;;13.20;11.20;;;23.00;99.90;;;;;;4976598;28;21001;-65
2022/10/13 09:19:22;;;;;;;22.47;11.50;;;22.70;99.90;;;;;;4977058;28;20450;-65
2022/10/13 09:21:49;;;;;;;12.77;11.17;;;22.50;99.90;;;;;;4977459;28;20475;-65
2022/10/13 09:24:19;;;;;;;16.10;12.10;;;22.30;99.90;;;;;;4976695;28;20455;-65
2022/10/13 09:26:48;;;;;;;12.57;11.10;;;21.90;99.90;;;;;;4977065;28;20509;-65
2022/10/13 09:29:18;;;;;;;14.93;11.60;;;21.80;99.90;;;;;;4976372;28;20506;-64
2022/10/13 09:31:45;;;;;;;18.90;12.10;;;21.60;99.90;;;;;;4978211;28;20478;-65
2022/10/13 09:34:15;;;;;;;19.70;12.90;;;21.30;99.90;;;;;;4982058;28;20876;-65
2022/10/13 09:36:59;;;;;;;16.00;11.20;;;20.90;99.90;;;;;;4980406;28;20465;-65
2022/10/13 09:39:28;;;;;;;15.00;11.93;;;20.70;99.90;;;;;;4976766;28;20442;-65
2022/10/13 09:42:18;;;;;;;13.50;12.20;;;20.50;99.90;;;;;;4976729;28;20479;-65
2022/10/13 09:44:46;;;;;;;14.00;11.50;;;20.30;99.90;;;;;;4976670;28;20443;-64
2022/10/13 09:47:20;;;;;;;15.90;11.70;;;20.00;99.90;;;;;;4976671;28;20462;-65
2022/10/13 09:49:57;;;;;;;17.83;10.43;;;19.60;99.90;;;;;;4976568;28;20447;-65
2022/10/13 09:52:24;;;;;;;13.77;10.30;;;19.50;99.90;;;;;;4976450;28;20876;-65
2022/10/13 09:54:55;;;;;;;12.47;10.47;;;19.30;99.90;;;;;;4976560;28;20546;-65
2022/10/13 09:57:31;;;;;;;15.20;11.93;;;19.20;99.90;;;;;;4976115;28;21018;-65
2022/10/13 10:00:05;;;;;;;12.17;10.17;;;19.00;99.90;;;;;;4976409;28;20442;-64
2022/10/13 10:02:35;;;;;;;15.63;10.50;;;18.90;99.90;;;;;;4976115;28;21009;-65
2022/10/13 10:05:06;;;;;;;16.87;10.00;;;18.90;99.90;;;;;;4976326;28;20811;-66
2022/10/13 10:07:34;;;;;;;10.80;9.80;;;18.90;99.90;;;;;;4976441;28;20443;-65
2022/10/13 10:10:05;;;;;;;14.70;11.13;;;18.90;99.90;;;;;;4976141;28;20459;-65
2022/10/13 10:12:36;;;;;;;14.60;10.37;;;18.80;99.90;;;;;;4975974;28;20486;-65
2022/10/13 10:15:05;;;;;;;13.30;10.07;;;18.70;99.90;;;;;;4976615;28;20444;-65
2022/10/13 10:17:40;;;;;;;18.33;11.30;;;18.60;99.90;;;;;;4976475;28;20454;-65
2022/10/13 10:20:33;;;;;;;13.93;10.17;;;18.40;99.90;;;;;;4976064;28;20504;-64
2022/10/13 10:23:05;;;;;;;15.50;10.97;;;18.30;99.90;;;;;;4976138;28;20484;-65
2022/10/13 10:25:40;;;;;;;13.10;10.30;;;18.20;99.90;;;;;;4976840;28;20443;-65
2022/10/13 10:28:21;;;;;;;13.53;9.83;;;18.20;99.90;;;;;;4975934;28;20443;-65
2022/10/13 10:30:53;;;;;;;10.33;9.27;;;18.10;99.90;;;;;;4975407;28;20996;-65
2022/10/13 10:33:28;;;;;;;10.57;8.70;;;18.00;99.90;;;;;;4975787;28;20875;-65
2022/10/13 10:36:02;;;;;;;12.17;9.17;;;18.00;99.90;;;;;;4975659;28;20482;-64
2022/10/13 10:38:40;;;;;;;14.27;9.07;;;18.00;99.90;;;;;;4975740;28;20501;-66
2022/10/13 10:41:17;;;;;;;11.10;8.80;;;18.00;99.90;;;;;;4974805;28;20533;-66
2022/10/13 10:43:49;;;;;;;11.13;8.70;;;18.00;99.90;;;;;;4975330;28;20446;-66
2022/10/13 10:46:18;;;;;;;14.27;9.60;;;17.90;99.90;;;;;;4975635;28;20439;-65
2022/10/13 10:48:49;;;;;;;19.47;10.17;;;17.80;99.90;;;;;;4975395;28;20455;-66
2022/10/13 10:51:17;;;;;;;15.97;9.00;;;17.70;99.90;;;;;;4975483;28;20482;-65
2022/10/13 10:53:58;;;;;;;11.33;9.30;;;17.70;99.90;;;;;;4974965;28;20478;-66
2022/10/13 10:56:31;;;;;;;12.87;9.17;;;17.70;99.90;;;;;;4975406;28;20447;-64
2022/10/13 10:59:09;;;;;;;10.90;8.97;;;17.80;99.90;;;;;;4975358;28;20447;-66
2022/10/13 11:01:42;;;;;;;10.30;8.00;;;17.90;99.90;;;;;;4974890;28;20489;-65
2022/10/13 11:04:36;;;;;;;11.73;8.13;;;17.90;99.90;;;;;;4975321;28;20435;-65
2022/10/13 11:07:03;;;;;;;9.10;8.00;;;18.00;99.90;;;;;;4973427;28;20942;-66
2022/10/13 11:10:04;;;;;;;12.27;9.63;;;18.10;99.90;;;;;;4974872;28;20454;-65
2022/10/13 11:13:11;;;;;;;14.00;10.67;;;18.10;99.90;;;;;;4973387;28;20471;-65
2022/10/13 11:15:45;;;;;;;11.40;8.40;;;18.10;99.90;;;;;;4916160;29;20449;-66
2022/10/13 11:18:55;;;;;;;10.17;8.90;;;18.10;99.90;;;;;;4967916;28;20504;-66
2022/10/13 11:21:22;;;;;;;12.10;8.23;;;18.10;99.90;;;;;;4970843;28;20478;-66
2022/10/13 11:23:49;;;;;;;13.80;9.00;;;18.10;99.90;;;;;;4975157;28;20939;-65
2022/10/13 11:26:41;;;;;;;13.17;8.40;;;18.20;99.90;;;;;;4975673;28;20459;-66
2022/10/13 11:29:18;;;;;;;9.43;8.40;;;18.30;99.90;;;;;;4974907;28;20435;-66
2022/10/13 11:31:53;;;;;;;12.33;8.50;;;18.40;99.90;;;;;;4974468;28;20981;-65
2022/10/13 11:34:31;;;;;;;13.73;8.53;;;18.60;99.90;;;;;;4974906;28;20459;-65
2022/10/13 11:37:03;;;;;;;11.93;8.60;;;18.60;99.90;;;;;;4975016;28;20442;-66
2022/10/13 11:39:59;;;;;;;15.17;9.20;;;18.70;99.90;;;;;;4974808;28;20455;-66
2022/10/13 11:42:55;;;;;;;11.87;8.27;;;18.90;99.90;;;;;;4975086;28;20485;-65
2022/10/13 11:45:48;;;;;;;13.60;8.80;;;18.90;99.90;;;;;;4972531;28;20455;-65
2022/10/13 11:48:37;;;;;;;11.80;8.83;;;18.90;99.90;;;;;;4975031;28;20443;-66
2022/10/13 11:51:14;;;;;;;14.47;8.77;;;19.00;99.90;;;;;;4968299;28;20529;-65
2022/10/13 11:53:50;;;;;;;15.70;8.70;;;19.00;99.90;;;;;;4978635;28;20470;-65
2022/10/13 11:56:21;;;;;;;10.53;9.43;;;19.00;99.90;;;;;;4978868;28;20497;-65
2022/10/13 11:58:48;;;;;;;12.33;8.90;;;19.00;99.90;;;;;;4979133;28;20458;-65
2022/10/13 12:01:18;;;;;;;12.57;9.17;;;19.10;99.90;;;;;;4979091;28;20482;-65
2022/10/13 12:03:46;;;;;;;11.93;9.50;;;19.20;99.90;;;;;;4978896;28;20447;-64
2022/10/13 12:06:33;;;;;;;13.30;9.00;;;19.10;99.90;;;;;;4978936;28;20455;-66
2022/10/13 12:09:03;;;;;;;10.00;8.53;;;19.20;99.90;;;;;;4978453;28;20435;-66
2022/10/13 12:11:31;;;;;;;11.17;8.17;;;19.20;99.90;;;;;;4978439;28;20466;-66
2022/10/13 12:13:59;;;;;;;9.60;7.60;;;19.30;99.90;;;;;;4978291;28;20478;-66
2022/10/13 12:16:27;;;;;;;10.33;8.17;;;19.30;99.90;;;;;;4978404;28;20505;-66
2022/10/13 12:19:06;;;;;;;14.27;8.30;;;19.30;99.90;;;;;;4978397;28;20458;-66
2022/10/13 12:21:33;;;;;;;12.90;7.73;;;19.50;99.90;;;;;;4978555;28;20886;-65
2022/10/13 12:24:07;;;;;;;8.93;7.43;;;19.60;99.90;;;;;;4978295;28;20455;-66
2022/10/13 12:26:34;;;;;;;11.60;8.07;;;19.60;99.90;;;;;;4978061;28;20810;-66
2022/10/13 12:29:02;;;;;;;10.97;8.50;;;19.60;99.90;;;;;;4979078;28;20462;-66
2022/10/13 12:31:39;;;;;;;9.40;8.10;;;19.70;99.90;;;;;;4988587;28;20985;-66
2022/10/13 12:34:19;;;;;;;13.33;7.50;;;19.70;99.90;;;;;;4987131;28;20466;-65
2022/10/13 12:36:52;;;;;;;8.87;7.57;;;19.90;99.90;;;;;;4978448;28;20847;-65
2022/10/13 12:39:19;;;;;;;10.20;7.57;;;20.10;99.90;;;;;;4977841;28;20447;-65
2022/10/13 12:41:48;;;;;;;12.87;9.93;;;20.30;99.90;;;;;;4978058;28;20478;-65
2022/10/13 12:44:18;;;;;;;8.43;7.10;;;20.50;99.90;;;;;;4977717;28;20525;-66
2022/10/13 12:46:46;;;;;;;16.03;8.23;;;20.50;99.90;;;;;;4977786;28;20458;-65
2022/10/13 12:49:16;;;;;;;11.07;7.10;;;20.50;99.90;;;;;;4977800;28;20463;-65
2022/10/13 12:51:45;;;;;;;8.00;7.20;;;20.50;99.90;;;;;;4977582;28;20478;-64
2022/10/13 12:54:21;;;;;;;12.83;6.87;;;20.60;99.90;;;;;;4977598;28;20505;-65
2022/10/13 12:56:48;;;;;;;12.10;7.23;;;20.60;99.90;;;;;;4977712;28;20439;-66
2022/10/13 12:59:17;;;;;;;12.23;7.87;;;20.70;99.90;;;;;;4977380;28;20830;-66
2022/10/13 13:01:45;;;;;;;8.07;7.27;;;20.60;99.90;;;;;;4977271;28;20581;-66
2022/10/13 13:04:29;;;;;;;11.13;7.90;;;20.60;99.90;;;;;;4976628;28;20598;-65
2022/10/13 13:07:06;;;;;;;8.33;7.43;;;20.60;99.90;;;;;;4977619;28;20494;-66
2022/10/13 13:09:33;;;;;;;7.83;7.13;;;20.50;99.90;;;;;;4977429;28;20465;-65
2022/10/13 13:12:26;;;;;;;10.03;7.10;;;20.60;99.90;;;;;;4977247;28;20566;-66
2022/10/13 13:14:54;;;;;;;7.77;6.93;;;20.60;99.90;;;;;;4977528;28;20814;-65
2022/10/13 13:17:25;;;;;;;9.97;6.87;;;20.60;99.90;;;;;;4977288;28;20546;-65
2022/10/13 13:19:53;;;;;;;9.00;8.17;;;20.70;99.90;;;;;;4977295;28;20443;-66
2022/10/13 13:22:20;;;;;;;8.97;7.70;;;20.60;99.90;;;;;;4977009;28;20565;-66
2022/10/13 13:24:49;;;;;;;22.13;8.33;;;20.50;99.90;;;;;;4977613;28;20455;-65
2022/10/13 13:27:18;;;;;;;8.77;7.87;;;20.50;99.90;;;;;;4976915;28;20516;-65
2022/10/13 13:29:45;;;;;;;10.40;7.60;;;20.30;99.90;;;;;;4976954;28;20455;-65
2022/10/13 13:32:14;;;;;;;8.00;6.37;;;20.20;99.90;;;;;;4976862;28;20474;-66
2022/10/13 13:34:41;;;;;;;7.93;7.17;;;20.20;99.90;;;;;;4976597;28;20474;-65
2022/10/13 13:37:14;;;;;;;10.03;6.77;;;20.10;99.90;;;;;;4976937;28;20459;-65
2022/10/13 13:39:40;;;;;;;10.57;7.67;;;20.10;99.90;;;;;;4976997;28;20903;-65
2022/10/13 13:42:13;;;;;;;16.20;7.30;;;20.10;99.90;;;;;;4976877;28;20482;-65
2022/10/13 13:44:40;;;;;;;11.67;7.87;;;20.10;99.90;;;;;;4976795;28;20439;-65
2022/10/13 13:47:17;;;;;;;13.23;7.40;;;20.10;99.90;;;;;;4976648;28;20450;-65
2022/10/13 13:49:44;;;;;;;13.00;7.07;;;20.10;99.90;;;;;;4976316;28;20910;-66
2022/10/13 13:52:12;;;;;;;7.90;6.90;;;19.90;99.90;;;;;;4976600;28;20478;-66
2022/10/13 13:54:39;;;;;;;9.63;7.10;;;19.90;99.90;;;;;;4977040;28;20529;-65
2022/10/13 13:57:06;;;;;;;10.93;9.27;;;19.80;99.90;;;;;;4976533;28;20459;-65
2022/10/13 13:59:32;;;;;;;14.97;7.70;;;19.80;99.90;;;;;;4976429;28;20455;-65
2022/10/13 14:01:59;;;;;;;11.20;7.90;;;19.80;99.90;;;;;;4975992;28;21018;-65
2022/10/13 14:04:26;;;;;;;8.17;6.30;;;19.70;99.90;;;;;;4976354;28;20455;-65
2022/10/13 14:06:53;;;;;;;12.83;6.77;;;19.70;99.90;;;;;;4976422;28;20465;-65
2022/10/13 14:09:21;;;;;;;11.70;7.20;;;19.60;99.90;;;;;;4976724;28;20517;-65
2022/10/13 14:11:48;;;;;;;10.83;7.17;;;19.50;99.90;;;;;;4977017;28;20475;-66
2022/10/13 14:14:15;;;;;;;8.90;7.50;;;19.50;99.90;;;;;;4976199;28;20486;-65
2022/10/13 14:16:41;;;;;;;11.03;7.10;;;19.40;99.90;;;;;;4975915;28;20486;-65
2022/10/13 14:19:09;;;;;;;13.50;7.27;;;19.40;99.90;;;;;;4976273;28;20462;-66
2022/10/13 14:21:36;;;;;;;10.00;6.73;;;19.30;99.90;;;;;;4975501;28;21014;-65
2022/10/13 14:24:02;;;;;;;7.87;7.10;;;19.30;99.90;;;;;;4975948;28;20453;-65
2022/10/13 14:26:31;;;;;;;10.23;7.37;;;19.20;99.90;;;;;;4975983;28;20513;-66
2022/10/13 14:28:57;;;;;;;8.97;8.13;;;19.10;99.90;;;;;;4975939;28;20458;-66
2022/10/13 14:31:24;;;;;;;10.63;6.83;;;19.10;99.90;;;;;;4975886;28;20554;-65
2022/10/13 14:33:51;;;;;;;8.87;6.37;;;19.00;99.90;;;;;;4975836;28;20463;-66
2022/10/13 14:36:18;;;;;;;10.37;7.47;;;19.00;99.90;;;;;;4975592;28;20859;-66
2022/10/13 14:38:44;;;;;;;13.13;8.10;;;18.90;99.90;;;;;;4975896;28;20505;-66
2022/10/13 14:41:11;;;;;;;9.33;8.30;;;18.90;99.90;;;;;;4975541;28;20564;-64
2022/10/13 14:43:39;;;;;;;11.90;9.20;;;18.80;99.90;;;;;;4975718;28;20459;-65
2022/10/13 14:46:06;;;;;;;11.80;8.90;;;18.60;99.90;;;;;;4976293;28;20451;-64
2022/10/13 14:48:34;;;;;;;10.90;9.90;;;18.50;99.90;;;;;;4975978;28;21013;-64
2022/10/13 14:51:04;;;;;;;11.77;9.47;;;18.40;99.90;;;;;;4975792;28;20478;-66
2022/10/13 14:53:32;;;;;;;9.13;8.23;;;18.20;99.90;;;;;;4975787;28;20949;-65
2022/10/13 14:55:59;;;;;;;11.83;9.47;;;18.00;99.90;;;;;;4975596;28;20483;-65
2022/10/13 14:58:26;;;;;;;12.20;10.27;;;18.00;99.90;;;;;;4975760;28;20533;-65
2022/10/13 15:00:54;;;;;;;14.60;11.70;;;17.90;99.90;;;;;;4975794;28;20537;-64
2022/10/13 15:03:21;;;;;;;14.33;11.57;;;17.90;99.90;;;;;;4975635;28;20890;-65
2022/10/13 15:05:48;;;;;;;16.20;13.10;;;17.80;99.90;;;;;;4975281;28;20455;-64
2022/10/13 15:08:14;;;;;;;11.73;10.50;;;17.70;99.90;;;;;;4975282;28;20966;-65
2022/10/13 15:10:41;;;;;;;16.10;10.60;;;17.70;99.90;;;;;;4975108;28;20478;-65
2022/10/13 15:13:08;;;;;;;16.17;11.03;;;17.70;99.90;;;;;;4975261;28;20459;-66
2022/10/13 15:15:34;;;;;;;12.83;10.50;;;17.70;99.90;;;;;;4975212;28;20478;-66
2022/10/13 15:18:02;;;;;;;16.57;11.53;;;17.70;99.90;;;;;;4975249;28;20505;-65
2022/10/13 15:20:29;;;;;;;14.87;10.90;;;17.70;99.90;;;;;;4975204;28;20454;-66
2022/10/13 15:22:55;;;;;;;15.90;11.30;;;17.70;99.90;;;;;;4974920;28;20992;-67
2022/10/13 15:25:22;;;;;;;13.13;11.70;;;17.70;99.90;;;;;;4975365;28;20447;-65
2022/10/13 15:27:49;;;;;;;13.83;11.30;;;17.60;99.90;;;;;;4980352;28;21001;-65
2022/10/13 15:30:15;;;;;;;13.23;11.83;;;17.60;99.90;;;;;;4985846;28;20451;-65
2022/10/13 15:32:42;;;;;;;13.40;10.80;;;17.60;99.90;;;;;;4979527;28;20455;-63
2022/10/13 15:35:10;;;;;;;15.60;11.30;;;17.50;99.90;;;;;;4975109;28;20981;-63
2022/10/13 15:37:37;;;;;;;15.40;11.80;;;17.50;99.90;;;;;;4975050;28;20924;-64
2022/10/13 15:40:04;;;;;;;17.23;11.60;;;17.50;99.90;;;;;;4975668;28;20477;-64
2022/10/13 15:42:30;;;;;;;12.20;10.90;;;17.50;99.90;;;;;;4974457;28;20505;-63
2022/10/13 15:44:57;;;;;;;14.10;11.80;;;17.50;99.90;;;;;;4974849;28;20459;-64
2022/10/13 15:47:24;;;;;;;14.00;11.20;;;17.40;99.90;;;;;;4975163;28;20454;-66
2022/10/13 15:49:50;;;;;;;16.83;11.63;;;17.40;99.90;;;;;;4975218;28;20454;-63
2022/10/13 15:52:18;;;;;;;13.37;11.53;;;17.40;99.90;;;;;;4974766;28;20479;-63
2022/10/13 15:54:45;;;;;;;14.90;13.40;;;17.40;99.90;;;;;;4975123;28;20478;-63
2022/10/13 15:57:13;;;;;;;13.63;11.70;;;17.30;99.90;;;;;;4974918;28;20458;-63
2022/10/13 15:59:40;;;;;;;18.07;11.93;;;17.20;99.90;;;;;;4974554;28;20985;-62
2022/10/13 16:02:06;;;;;;;11.90;10.70;;;17.20;99.90;;;;;;4974382;28;20518;-63
2022/10/13 16:04:33;;;;;;;15.60;11.20;;;17.20;99.90;;;;;;4975092;28;20458;-63
2022/10/13 16:06:59;;;;;;;12.87;11.00;;;17.20;99.90;;;;;;4974991;28;20454;-62
2022/10/13 16:09:28;;;;;;;12.30;11.00;;;17.20;99.90;;;;;;4974807;28;20455;-63
2022/10/13 16:11:55;;;;;;;12.80;11.57;;;17.20;99.90;;;;;;4974812;28;20529;-63
2022/10/13 16:14:21;;;;;;;12.10;10.73;;;17.10;99.90;;;;;;4974762;28;20458;-63
2022/10/13 16:16:48;;;;;;;17.37;12.57;;;17.10;99.90;;;;;;4974612;28;20942;-63
2022/10/13 16:19:15;;;;;;;13.00;11.70;;;17.10;99.90;;;;;;4974807;28;20454;-62
2022/10/13 16:21:41;;;;;;;12.10;10.90;;;17.00;99.90;;;;;;4974649;28;20475;-63
2022/10/13 16:24:08;;;;;;;13.80;12.03;;;17.00;99.90;;;;;;4974725;28;20451;-63
2022/10/13 16:26:36;;;;;;;13.83;12.33;;;17.00;99.90;;;;;;4974614;28;20451;-62
2022/10/13 16:29:03;;;;;;;18.00;14.57;;;17.10;99.90;;;;;;4974616;28;20481;-62
2022/10/13 16:31:30;;;;;;;17.07;15.50;;;17.00;99.90;;;;;;4974497;28;20475;-63
2022/10/13 16:33:56;;;;;;;17.30;14.20;;;17.00;99.90;;;;;;4974525;28;20537;-63
2022/10/13 16:36:24;;;;;;;16.43;14.57;;;16.90;99.90;;;;;;4974360;28;20489;-63
2022/10/13 16:38:53;;;;;;;16.23;14.53;;;16.90;99.90;;;;;;4975860;28;20481;-63
2022/10/13 16:41:20;;;;;;;24.20;14.47;;;16.90;99.90;;;;;;4977999;28;20480;-63
2022/10/13 16:43:49;;;;;;;16.63;14.40;;;16.80;99.90;;;;;;4977641;28;20516;-64